createdAt,value
2022-12-31T00:00:24.044Z,99820.41
2022-12-31T00:02:50.558Z,99819.56
2022-12-31T00:05:17.073Z,99809.16
2022-12-31T00:10:09.271Z,99803.94
2022-12-31T00:12:35.656Z,99803.53
2022-12-31T00:15:02.119Z,99802.31
2022-12-31T00:17:28.612Z,99802.72
2022-12-31T00:19:54.993Z,99801.91
2022-12-31T00:22:21.458Z,99797.09
2022-12-31T00:24:47.893Z,99793.88
2022-12-31T00:27:14.254Z,99791.06
2022-12-31T00:29:40.636Z,99776.59
2022-12-31T00:32:07.860Z,99777.41
2022-12-31T00:34:34.451Z,99781.81
2022-12-31T00:37:00.949Z,99786.22
2022-12-31T00:39:27.357Z,99781.41
2022-12-31T00:41:54.021Z,99790.22
2022-12-31T00:44:20.764Z,99798.22
2022-12-31T00:46:48.429Z,99806.28
2022-12-31T00:49:15.016Z,99803.03
2022-12-31T00:51:41.747Z,99798.22
2022-12-31T00:54:09.198Z,99796.63
2022-12-31T00:56:35.551Z,99799.44
2022-12-31T00:59:01.972Z,99795.00
2022-12-31T01:01:34.262Z,99799.84
2022-12-31T01:04:12.134Z,99811.91
2022-12-31T01:06:39.222Z,99806.69
2022-12-31T01:09:07.107Z,99805.09
2022-12-31T01:11:34.110Z,99784.22
2022-12-31T01:14:05.109Z,99784.66
2022-12-31T01:16:41.242Z,99779.47
2022-12-31T01:19:11.278Z,99773.06
2022-12-31T01:21:39.862Z,99771.47
2022-12-31T01:24:06.730Z,99769.06
2022-12-31T01:26:33.125Z,99767.06
2022-12-31T01:28:59.548Z,99759.03
2022-12-31T01:31:29.217Z,99760.63
2022-12-31T01:33:55.743Z,99754.63
2022-12-31T01:36:26.284Z,99768.28
2022-12-31T01:38:56.713Z,99752.63
2022-12-31T01:41:26.969Z,99747.00
2022-12-31T01:43:57.094Z,99745.41
2022-12-31T01:46:52.214Z,99745.03
2022-12-31T01:49:41.109Z,99740.22
2022-12-31T01:52:15.745Z,99735.78
2022-12-31T01:54:51.682Z,99731.00
2022-12-31T01:57:18.675Z,99731.75
2022-12-31T01:59:45.620Z,99714.53
2022-12-31T02:02:13.829Z,99714.91
2022-12-31T02:04:40.326Z,99721.72
2022-12-31T02:07:08.539Z,99718.13
2022-12-31T02:09:38.610Z,99724.53
2022-12-31T02:12:06.797Z,99714.88
2022-12-31T02:14:41.906Z,99712.84
2022-12-31T02:17:24.591Z,99707.63
2022-12-31T02:20:12.749Z,99694.38
2022-12-31T02:22:42.223Z,99690.34
2022-12-31T02:25:28.312Z,99698.75
2022-12-31T02:28:19.087Z,99696.75
2022-12-31T02:30:50.522Z,99706.75
2022-12-31T02:33:22.867Z,99699.94
2022-12-31T02:36:04.284Z,99698.75
2022-12-31T02:38:38.452Z,99706.31
2022-12-31T02:41:05.153Z,99710.72
2022-12-31T02:43:32.953Z,99695.84
2022-12-31T02:46:21.428Z,99692.63
2022-12-31T02:49:16.115Z,99692.63
2022-12-31T02:52:03.050Z,99664.06
2022-12-31T02:54:44.399Z,99666.44
2022-12-31T02:57:39.085Z,99672.03
2022-12-31T03:00:27.759Z,99683.63
2022-12-31T03:02:55.731Z,99677.13
2022-12-31T03:05:29.496Z,99687.13
2022-12-31T03:07:56.076Z,99691.09
2022-12-31T03:10:22.535Z,99690.69
2022-12-31T03:12:49.827Z,99684.59
2022-12-31T03:15:22.341Z,99680.59
2022-12-31T03:18:03.245Z,99683.34
2022-12-31T03:20:57.904Z,99682.53
2022-12-31T03:23:33.807Z,99683.66
2022-12-31T03:26:01.064Z,99692.88
2022-12-31T03:28:29.698Z,99701.69
2022-12-31T03:30:57.365Z,99702.44
2022-12-31T03:33:25.628Z,99705.59
2022-12-31T03:35:53.550Z,99716.84
2022-12-31T03:38:20.589Z,99718.44
2022-12-31T03:40:53.733Z,99711.66
2022-12-31T03:45:51.777Z,99726.16
2022-12-31T03:48:18.768Z,99737.81
2022-12-31T03:50:45.444Z,99744.66
2022-12-31T03:53:11.888Z,99748.28
2022-12-31T03:55:38.637Z,99740.25
2022-12-31T03:58:05.222Z,99745.09
2022-12-31T04:00:31.864Z,99734.66
2022-12-31T04:02:59.846Z,99749.16
2022-12-31T04:05:26.525Z,99751.97
2022-12-31T04:07:53.080Z,99756.00
2022-12-31T04:10:20.755Z,99730.69
2022-12-31T04:12:48.300Z,99749.53
2022-12-31T04:15:20.749Z,99728.66
2022-12-31T04:17:48.127Z,99730.66
2022-12-31T04:20:15.384Z,99721.00
2022-12-31T04:22:42.657Z,99737.03
2022-12-31T04:25:13.405Z,99724.94
2022-12-31T04:27:41.384Z,99701.63
2022-12-31T04:30:08.293Z,99722.81
2022-12-31T04:32:34.664Z,99728.81
2022-12-31T04:35:01.193Z,99725.13
2022-12-31T04:37:27.768Z,99726.69
2022-12-31T04:39:54.305Z,99723.44
2022-12-31T04:42:20.731Z,99726.94
2022-12-31T04:44:47.063Z,99735.75
2022-12-31T04:47:15.271Z,99728.47
2022-12-31T04:49:44.797Z,99735.25
2022-12-31T04:52:11.251Z,99753.25
2022-12-31T04:54:37.559Z,99752.41
2022-12-31T04:57:04.083Z,99748.72
2022-12-31T04:59:30.545Z,99753.16
2022-12-31T05:01:57.058Z,99752.41
2022-12-31T05:04:23.769Z,99741.59
2022-12-31T05:06:50.375Z,99747.25
2022-12-31T05:09:16.852Z,99739.28
2022-12-31T05:11:43.321Z,99744.13
2022-12-31T05:14:10.061Z,99738.88
2022-12-31T05:16:36.893Z,99746.94
2022-12-31T05:19:06.203Z,99742.88
2022-12-31T05:21:32.967Z,99740.44
2022-12-31T05:23:59.694Z,99739.19
2022-12-31T05:26:26.226Z,99745.56
2022-12-31T05:28:52.863Z,99745.97
2022-12-31T05:31:19.280Z,99741.91
2022-12-31T05:33:46.016Z,99746.28
2022-12-31T05:36:14.807Z,99735.34
2022-12-31T05:38:41.509Z,99750.22
2022-12-31T05:41:08.417Z,99731.19
2022-12-31T05:43:35.086Z,99744.41
2022-12-31T05:46:03.239Z,99750.31
2022-12-31T05:48:31.488Z,99751.81
2022-12-31T05:50:58.601Z,99747.25
2022-12-31T05:53:25.018Z,99745.56
2022-12-31T05:55:51.572Z,99749.88
2022-12-31T05:58:18.013Z,99766.72
2022-12-31T06:00:44.807Z,99756.53
2022-12-31T06:03:11.429Z,99767.75
2022-12-31T06:05:44.087Z,99760.00
2022-12-31T06:08:12.032Z,99757.88
2022-12-31T06:10:39.280Z,99764.63
2022-12-31T06:13:06.119Z,99781.84
2022-12-31T06:15:32.954Z,99789.91
2022-12-31T06:17:59.436Z,99782.19
2022-12-31T06:20:25.882Z,99790.97
2022-12-31T06:22:52.248Z,99792.50
2022-12-31T06:25:18.732Z,99789.59
2022-12-31T06:27:45.164Z,99788.31
2022-12-31T06:30:12.124Z,99808.38
2022-12-31T06:32:39.343Z,99792.66
2022-12-31T06:35:06.782Z,99802.31
2022-12-31T06:37:33.337Z,99795.03
2022-12-31T06:39:59.781Z,99797.38
2022-12-31T06:42:29.692Z,99803.03
2022-12-31T06:44:56.651Z,99809.41
2022-12-31T06:47:23.036Z,99816.25
2022-12-31T06:49:49.389Z,99839.97
2022-12-31T06:52:15.869Z,99834.28
2022-12-31T06:54:42.693Z,99837.53
2022-12-31T06:57:09.847Z,99841.91
2022-12-31T06:59:36.433Z,99833.00
2022-12-31T07:02:14.176Z,99836.16
2022-12-31T07:05:04.646Z,99851.97
2022-12-31T07:08:16.097Z,99843.50
2022-12-31T07:11:12.188Z,99854.00
2022-12-31T07:13:59.997Z,99843.13
2022-12-31T07:16:55.155Z,99844.34
2022-12-31T07:19:29.300Z,99854.00
2022-12-31T07:21:58.698Z,99854.78
2022-12-31T07:24:25.676Z,99862.81
2022-12-31T07:27:07.287Z,99867.72
2022-12-31T07:30:21.789Z,99872.19
2022-12-31T07:33:12.846Z,99868.06
2022-12-31T07:35:51.170Z,99870.91
2022-12-31T07:38:38.458Z,99869.28
2022-12-31T07:41:13.454Z,99874.06
2022-12-31T07:43:59.778Z,99874.88
2022-12-31T07:46:39.680Z,99876.84
2022-12-31T07:49:11.642Z,99867.13
2022-12-31T07:51:39.001Z,99870.75
2022-12-31T07:54:11.835Z,99871.13
2022-12-31T07:56:40.540Z,99881.22
2022-12-31T07:59:45.713Z,99886.06
2022-12-31T08:02:27.339Z,99891.28
2022-12-31T08:05:06.526Z,99887.94
2022-12-31T08:07:51.301Z,99894.84
2022-12-31T08:10:31.345Z,99879.44
2022-12-31T08:13:02.849Z,99900.34
2022-12-31T08:15:30.704Z,99908.34
2022-12-31T08:17:57.946Z,99888.56
2022-12-31T08:20:26.640Z,99907.94
2022-12-31T08:23:01.723Z,99895.38
2022-12-31T08:25:43.533Z,99900.25
2022-12-31T08:28:15.750Z,99914.72
2022-12-31T08:31:00.971Z,99896.97
2022-12-31T08:33:38.741Z,99912.25
2022-12-31T08:36:20.332Z,99913.88
2022-12-31T08:39:20.968Z,99916.72
2022-12-31T08:41:54.815Z,99914.69
2022-12-31T08:44:33.589Z,99915.09
2022-12-31T08:47:08.885Z,99912.19
2022-12-31T08:49:35.709Z,99913.38
2022-12-31T08:52:03.092Z,99904.47
2022-12-31T08:54:30.056Z,99931.50
2022-12-31T08:57:33.614Z,99922.66
2022-12-31T09:00:03.700Z,99925.00
2022-12-31T09:02:47.718Z,99920.94
2022-12-31T09:05:30.032Z,99890.94
2022-12-31T09:08:08.222Z,99945.06
2022-12-31T09:11:07.999Z,99928.81
2022-12-31T09:14:11.200Z,99929.19
2022-12-31T09:16:48.658Z,99923.47
2022-12-31T09:19:15.508Z,99939.94
2022-12-31T09:21:44.394Z,99937.09
2022-12-31T09:24:15.366Z,99933.84
2022-12-31T09:27:27.803Z,99931.81
2022-12-31T09:30:11.514Z,99942.25
2022-12-31T09:33:05.558Z,99956.75
2022-12-31T09:35:45.292Z,99946.63
2022-12-31T09:38:39.206Z,99977.34
2022-12-31T09:41:46.732Z,99970.03
2022-12-31T09:44:34.946Z,99997.47
2022-12-31T09:47:01.236Z,100013.56
2022-12-31T09:49:58.792Z,100016.09
2022-12-31T09:52:34.528Z,100014.78
2022-12-31T09:55:40.148Z,100024.91
2022-12-31T09:58:18.677Z,100028.94
2022-12-31T10:01:17.431Z,100032.25
2022-12-31T10:04:09.713Z,100048.44
2022-12-31T10:07:04.767Z,100038.75
2022-12-31T10:09:54.044Z,100042.38
2022-12-31T10:12:33.069Z,100043.13
2022-12-31T10:15:33.822Z,100050.03
2022-12-31T10:18:29.222Z,100061.69
2022-12-31T10:21:16.882Z,100050.31
2022-12-31T10:24:08.575Z,100064.47
2022-12-31T10:27:14.547Z,100050.31
2022-12-31T10:29:48.412Z,100061.53
2022-12-31T10:32:38.672Z,100068.09
2022-12-31T10:35:29.948Z,100060.00
2022-12-31T10:38:09.247Z,100068.47
2022-12-31T10:41:00.186Z,100062.81
2022-12-31T10:44:09.230Z,100059.91
2022-12-31T10:47:17.239Z,100090.97
2022-12-31T10:50:10.674Z,100084.81
2022-12-31T10:52:41.523Z,100080.69
2022-12-31T10:55:49.684Z,100061.69
2022-12-31T10:58:34.602Z,100082.97
2022-12-31T11:01:17.504Z,100081.00
2022-12-31T11:03:55.712Z,100081.31
2022-12-31T11:06:52.442Z,100082.91
2022-12-31T11:09:34.541Z,100072.31
2022-12-31T11:12:19.936Z,100067.53
2022-12-31T11:15:15.516Z,100066.66
2022-12-31T11:18:05.065Z,100049.22
2022-12-31T11:20:56.436Z,100057.69
2022-12-31T11:24:11.304Z,100043.03
2022-12-31T11:27:13.317Z,100040.56
2022-12-31T11:29:58.307Z,100049.44
2022-12-31T11:33:06.121Z,100072.00
2022-12-31T11:36:02.237Z,100043.69
2022-12-31T11:38:33.427Z,100051.25
2022-12-31T11:41:10.054Z,100058.56
2022-12-31T11:43:48.256Z,100075.94
2022-12-31T11:46:14.837Z,100060.03
2022-12-31T11:49:02.308Z,100067.34
2022-12-31T11:52:21.191Z,100060.84
2022-12-31T11:55:12.711Z,100066.44
2022-12-31T11:57:42.051Z,100077.66
2022-12-31T12:00:19.721Z,100070.47
2022-12-31T12:03:01.229Z,100066.44
2022-12-31T12:05:28.250Z,100072.50
2022-12-31T12:07:55.105Z,100073.41
2022-12-31T12:10:44.244Z,100056.03
2022-12-31T12:13:22.138Z,100068.25
2022-12-31T12:15:52.309Z,100077.16
2022-12-31T12:18:40.977Z,100066.72
2022-12-31T12:21:25.188Z,100095.03
2022-12-31T12:23:59.792Z,100097.41
2022-12-31T12:26:46.624Z,100101.53
2022-12-31T12:29:19.403Z,100098.72
2022-12-31T12:31:59.193Z,100110.09
2022-12-31T12:34:29.251Z,100109.69
2022-12-31T12:36:55.709Z,100099.22
2022-12-31T12:39:28.532Z,100110.97
2022-12-31T12:42:10.432Z,100099.72
2022-12-31T12:44:37.214Z,100106.97
2022-12-31T12:47:09.037Z,100101.41
2022-12-31T12:49:46.028Z,100090.66
2022-12-31T12:52:26.955Z,100097.66
2022-12-31T12:55:02.514Z,100092.44
2022-12-31T12:57:38.459Z,100085.69
2022-12-31T13:00:32.259Z,100091.00
2022-12-31T13:02:58.531Z,100098.34
2022-12-31T13:06:05.351Z,100099.34
2022-12-31T13:09:16.513Z,100103.50
2022-12-31T13:12:14.371Z,100097.16
2022-12-31T13:15:09.959Z,100106.97
2022-12-31T13:17:54.056Z,100123.59
2022-12-31T13:20:35.201Z,100106.72
2022-12-31T13:23:17.375Z,100104.38
2022-12-31T13:26:02.703Z,100098.41
2022-12-31T13:28:31.982Z,100102.91
2022-12-31T13:31:07.058Z,100105.38
2022-12-31T13:33:39.305Z,100113.94
2022-12-31T13:36:11.769Z,100119.63
2022-12-31T13:38:51.531Z,100119.66
2022-12-31T13:41:24.915Z,100126.56
2022-12-31T13:44:14.463Z,100116.84
2022-12-31T13:46:46.862Z,100095.47
2022-12-31T13:49:31.409Z,100085.44
2022-12-31T13:52:14.664Z,100107.22
2022-12-31T13:55:09.948Z,100109.69
2022-12-31T13:57:39.261Z,100097.53
2022-12-31T14:00:14.445Z,100116.88
2022-12-31T14:02:47.853Z,100114.06
2022-12-31T14:05:23.247Z,100103.16
2022-12-31T14:07:55.773Z,100130.16
2022-12-31T14:10:36.368Z,100116.84
2022-12-31T14:13:22.731Z,100133.75
2022-12-31T14:16:07.035Z,100132.53
2022-12-31T14:18:44.858Z,100127.63
2022-12-31T14:21:24.897Z,100132.06
2022-12-31T14:24:00.423Z,100129.97
2022-12-31T14:26:32.997Z,100124.31
2022-12-31T14:29:06.846Z,100132.81
2022-12-31T14:31:44.891Z,100128.75
2022-12-31T14:34:35.592Z,100125.09
2022-12-31T14:37:28.863Z,100129.88
2022-12-31T14:40:12.866Z,100131.91
2022-12-31T14:42:54.731Z,100137.53
2022-12-31T14:45:27.784Z,100152.88
2022-12-31T14:48:17.110Z,100144.38
2022-12-31T14:50:47.010Z,100126.59
2022-12-31T14:53:24.667Z,100125.84
2022-12-31T14:56:26.698Z,100137.13
2022-12-31T14:58:58.041Z,100134.31
2022-12-31T15:01:26.342Z,100148.44
2022-12-31T15:03:57.289Z,100140.81
2022-12-31T15:06:23.710Z,100136.81
2022-12-31T15:09:13.663Z,100156.69
2022-12-31T15:12:04.717Z,100155.88
2022-12-31T15:15:08.668Z,100147.88
2022-12-31T15:17:53.733Z,100146.66
2022-12-31T15:20:38.964Z,100145.13
2022-12-31T15:23:19.493Z,100147.63
2022-12-31T15:25:49.495Z,100160.19
2022-12-31T15:28:36.567Z,100165.94
2022-12-31T15:31:23.476Z,100164.81
2022-12-31T15:34:24.730Z,100160.81
2022-12-31T15:36:54.607Z,100159.22
2022-12-31T15:39:38.273Z,100159.28
2022-12-31T15:42:37.729Z,100159.28
2022-12-31T15:45:12.845Z,100163.78
2022-12-31T15:47:47.491Z,100149.72
2022-12-31T15:50:22.242Z,100174.38
2022-12-31T15:52:59.847Z,100166.38
2022-12-31T15:55:32.652Z,100166.81
2022-12-31T15:58:05.138Z,100171.69
2022-12-31T16:00:58.103Z,100183.41
2022-12-31T16:03:27.647Z,100162.88
2022-12-31T16:06:01.969Z,100167.75
2022-12-31T16:08:34.264Z,100162.91
2022-12-31T16:11:08.635Z,100149.25
2022-12-31T16:13:41.164Z,100166.19
2022-12-31T16:16:19.620Z,100174.66
2022-12-31T16:18:46.611Z,100167.78
2022-12-31T16:21:45.511Z,100173.84
2022-12-31T16:24:33.125Z,100158.56
2022-12-31T16:27:07.408Z,100164.59
2022-12-31T16:29:36.842Z,100163.38
2022-12-31T16:32:03.960Z,100159.75
2022-12-31T16:34:36.981Z,100170.66
2022-12-31T16:37:07.373Z,100160.97
2022-12-31T16:39:38.987Z,100158.16
2022-12-31T16:42:14.989Z,100168.66
2022-12-31T16:44:41.963Z,100166.19
2022-12-31T16:47:16.527Z,100160.19
2022-12-31T16:49:43.318Z,100145.22
2022-12-31T16:52:25.509Z,100152.13
2022-12-31T16:54:54.213Z,100150.09
2022-12-31T16:57:23.987Z,100179.13
2022-12-31T16:59:57.549Z,100175.91
2022-12-31T17:02:35.353Z,100167.88
2022-12-31T17:05:02.645Z,100170.69
2022-12-31T17:07:31.971Z,100163.84
2022-12-31T17:10:07.556Z,100164.69
2022-12-31T17:12:53.079Z,100166.72
2022-12-31T17:15:30.394Z,100166.31
2022-12-31T17:18:01.082Z,100144.56
2022-12-31T17:20:30.351Z,100161.47
2022-12-31T17:23:00.587Z,100153.44
2022-12-31T17:25:30.153Z,100153.81
2022-12-31T17:28:19.953Z,100159.09
2022-12-31T17:30:46.751Z,100140.50
2022-12-31T17:33:13.211Z,100142.13
2022-12-31T17:35:42.396Z,100141.34
2022-12-31T17:38:20.623Z,100165.94
2022-12-31T17:40:51.605Z,100149.81
2022-12-31T17:43:20.760Z,100139.34
2022-12-31T17:45:47.481Z,100123.22
2022-12-31T17:48:17.297Z,100123.59
2022-12-31T17:50:58.172Z,100119.59
2022-12-31T17:53:25.052Z,100114.38
2022-12-31T17:55:54.912Z,100112.75
2022-12-31T17:58:35.847Z,100121.28
2022-12-31T18:01:05.883Z,100118.81
2022-12-31T18:03:32.568Z,100126.47
2022-12-31T18:05:58.978Z,100132.91
2022-12-31T18:08:25.362Z,100135.31
2022-12-31T18:10:53.949Z,100137.34
2022-12-31T18:13:22.755Z,100133.31
2022-12-31T18:15:49.693Z,100125.59
2022-12-31T18:18:24.363Z,100135.28
2022-12-31T18:20:55.222Z,100127.25
2022-12-31T18:23:27.782Z,100129.69
2022-12-31T18:25:54.642Z,100137.31
2022-12-31T18:28:21.141Z,100133.28
2022-12-31T18:30:48.120Z,100137.31
2022-12-31T18:33:19.816Z,100112.72
2022-12-31T18:36:08.428Z,100137.31
2022-12-31T18:38:34.525Z,100121.97
2022-12-31T18:41:00.977Z,100116.31
2022-12-31T18:43:28.617Z,100108.69
2022-12-31T18:45:55.160Z,100118.38
2022-12-31T18:48:21.965Z,100112.34
2022-12-31T18:50:49.625Z,100109.56
2022-12-31T18:53:18.705Z,100126.91
2022-12-31T18:55:50.980Z,100141.41
2022-12-31T18:58:17.449Z,100132.56
2022-12-31T19:00:44.314Z,100101.13
2022-12-31T19:03:16.233Z,100111.59
2022-12-31T19:05:43.092Z,100123.69
2022-12-31T19:08:09.794Z,100122.88
2022-12-31T19:10:36.346Z,100118.91
2022-12-31T19:13:03.069Z,100110.84
2022-12-31T19:15:38.996Z,100119.72
2022-12-31T19:18:05.670Z,100114.09
2022-12-31T19:20:32.179Z,100129.41
2022-12-31T19:22:58.677Z,100144.72
2022-12-31T19:25:28.188Z,100133.84
2022-12-31T19:27:54.750Z,100145.91
2022-12-31T19:30:24.486Z,100141.50
2022-12-31T19:32:51.630Z,100142.31
2022-12-31T19:35:19.285Z,100141.50
2022-12-31T19:37:48.143Z,100139.09
2022-12-31T19:40:22.354Z,100135.03
2022-12-31T19:42:50.554Z,100129.38
2022-12-31T19:45:22.188Z,100138.28
2022-12-31T19:47:49.257Z,100138.69
2022-12-31T19:50:19.277Z,100146.31
2022-12-31T19:52:50.719Z,100143.50
2022-12-31T19:55:19.679Z,100152.38
2022-12-31T19:57:48.474Z,100152.38
2022-12-31T20:00:17.213Z,100152.78
2022-12-31T20:02:46.779Z,100156.81
2022-12-31T20:05:15.276Z,100162.44
2022-12-31T20:07:42.410Z,100163.25
2022-12-31T20:10:09.424Z,100171.72
2022-12-31T20:12:43.908Z,100172.50
2022-12-31T20:15:11.350Z,100167.28
2022-12-31T20:17:37.930Z,100173.72
2022-12-31T20:20:06.843Z,100169.31
2022-12-31T20:22:33.716Z,100173.72
2022-12-31T20:25:00.257Z,100180.16
2022-12-31T20:27:26.851Z,100189.44
2022-12-31T20:29:53.220Z,100181.38
2022-12-31T20:32:19.727Z,100192.25
2022-12-31T20:34:46.102Z,100198.31
2022-12-31T20:37:12.736Z,100201.50
2022-12-31T20:39:39.114Z,100192.63
2022-12-31T20:42:05.644Z,100202.69
2022-12-31T20:44:32.085Z,100210.75
2022-12-31T20:46:58.463Z,100216.38
2022-12-31T20:49:52.077Z,100220.81
2022-12-31T20:52:11.499Z,100216.34
2022-12-31T20:54:39.320Z,100222.00
2022-12-31T20:57:06.149Z,100225.19
2022-12-31T20:59:32.566Z,100234.47
2022-12-31T21:04:46.832Z,100225.97
2022-12-31T21:07:13.456Z,100237.25
2022-12-31T21:09:39.964Z,100236.03
2022-12-31T21:12:27.211Z,100240.88
2022-12-31T21:14:53.562Z,100242.47
2022-12-31T21:17:20.071Z,100237.25
2022-12-31T21:19:46.940Z,100240.09
2022-12-31T21:22:13.474Z,100238.06
2022-12-31T21:24:39.890Z,100242.47
2022-12-31T21:27:07.178Z,100240.06
2022-12-31T21:29:34.904Z,100257.00
2022-12-31T21:32:03.744Z,100262.22
2022-12-31T21:34:30.151Z,100254.13
2022-12-31T21:36:56.523Z,100257.75
2022-12-31T21:39:23.409Z,100267.41
2022-12-31T21:41:52.748Z,100271.03
2022-12-31T21:44:21.034Z,100270.22
2022-12-31T21:47:25.023Z,100268.16
2022-12-31T21:49:35.230Z,100273.75
2022-12-31T21:52:20.190Z,100277.78
2022-12-31T21:55:05.445Z,100283.41
2022-12-31T21:57:46.219Z,100284.22
2022-12-31T22:00:42.832Z,100271.69
2022-12-31T22:03:24.299Z,100287.03
2022-12-31T22:05:53.374Z,100292.25
2022-12-31T22:08:21.876Z,100284.59
2022-12-31T22:10:52.527Z,100286.97
2022-12-31T22:13:19.708Z,100291.44
2022-12-31T22:15:49.142Z,100288.63
2022-12-31T22:18:16.706Z,100293.41
2022-12-31T22:20:43.357Z,100284.94
2022-12-31T22:23:10.233Z,100286.16
2022-12-31T22:25:40.856Z,100295.84
2022-12-31T22:30:54.290Z,100294.66
2022-12-31T22:33:20.713Z,100308.38
2022-12-31T22:35:58.129Z,100309.22
2022-12-31T22:38:25.745Z,100313.69
2022-12-31T22:40:52.422Z,100307.63
2022-12-31T22:43:18.951Z,100319.75
2022-12-31T22:45:45.334Z,100314.50
2022-12-31T22:48:11.736Z,100319.78
2022-12-31T22:50:40.530Z,100313.34
2022-12-31T22:53:06.888Z,100314.56
2022-12-31T22:55:33.360Z,100316.53
2022-12-31T22:57:59.790Z,100310.09
2022-12-31T23:00:44.495Z,100310.91
2022-12-31T23:03:11.138Z,100312.09
2022-12-31T23:05:37.727Z,100329.03
2022-12-31T23:08:11.849Z,100330.25
2022-12-31T23:11:01.495Z,100335.47
2022-12-31T23:13:50.912Z,100330.19
2022-12-31T23:16:36.672Z,100323.31
2022-12-31T23:19:21.653Z,100322.94
2022-12-31T23:22:06.953Z,100330.56
2022-12-31T23:24:33.546Z,100322.91
2022-12-31T23:26:59.940Z,100336.19
2022-12-31T23:29:27.604Z,100318.81
2022-12-31T23:31:54.961Z,100321.63
2022-12-31T23:34:22.644Z,100323.63
2022-12-31T23:36:49.046Z,100313.53
2022-12-31T23:39:15.495Z,100308.66
2022-12-31T23:41:41.870Z,100321.59
2022-12-31T23:44:10.025Z,100318.78
2022-12-31T23:46:36.342Z,100304.22
2022-12-31T23:49:02.741Z,100307.84
2022-12-31T23:51:29.456Z,100314.31
2022-12-31T23:53:55.854Z,100315.91
2022-12-31T23:56:24.027Z,100314.69
2022-12-31T23:58:57.942Z,100315.91
